createdAt,value
2023-03-14T00:02:12.983Z,9.35
2023-03-14T00:04:39.382Z,13.57
2023-03-14T00:07:05.751Z,11.82
2023-03-14T00:09:32.103Z,15.70
2023-03-14T00:11:58.823Z,11.68
2023-03-14T00:14:25.539Z,9.32
2023-03-14T00:16:52.142Z,10.10
2023-03-14T00:19:18.504Z,7.40
2023-03-14T00:21:44.863Z,11.25
2023-03-14T00:24:11.251Z,17.52
2023-03-14T00:26:37.684Z,11.55
2023-03-14T00:29:04.166Z,9.38
2023-03-14T00:31:30.582Z,10.05
2023-03-14T00:33:57.384Z,11.32
2023-03-14T00:36:24.821Z,11.20
2023-03-14T00:38:52.072Z,7.15
2023-03-14T00:41:20.149Z,9.95
2023-03-14T00:43:47.317Z,11.55
2023-03-14T00:46:13.943Z,9.15
2023-03-14T00:48:40.513Z,9.10
2023-03-14T00:51:07.505Z,7.95
2023-03-14T00:53:37.489Z,9.52
2023-03-14T00:56:08.391Z,10.43
2023-03-14T00:58:34.781Z,9.00
2023-03-14T01:01:06.350Z,8.43
2023-03-14T01:03:32.742Z,8.98
2023-03-14T01:06:19.141Z,7.22
2023-03-14T01:08:45.884Z,7.07
2023-03-14T01:11:15.075Z,6.30
2023-03-14T01:13:41.851Z,9.95
2023-03-14T01:16:09.711Z,10.15
2023-03-14T01:18:37.687Z,7.35
2023-03-14T01:21:04.946Z,7.65
2023-03-14T01:23:31.421Z,6.32
2023-03-14T01:25:57.883Z,9.02
2023-03-14T01:28:24.345Z,7.53
2023-03-14T01:30:50.865Z,7.38
2023-03-14T01:33:17.296Z,4.85
2023-03-14T01:35:45.027Z,7.47
2023-03-14T01:38:11.546Z,7.15
2023-03-14T01:40:46.649Z,4.70
2023-03-14T01:43:18.560Z,6.88
2023-03-14T01:46:03.832Z,4.63
2023-03-14T01:48:33.564Z,5.75
2023-03-14T01:51:00.526Z,7.25
2023-03-14T01:53:27.448Z,8.68
2023-03-14T01:55:57.317Z,7.07
2023-03-14T01:58:26.363Z,8.95
2023-03-14T02:00:53.021Z,5.93
2023-03-14T02:03:22.032Z,5.35
2023-03-14T02:05:49.685Z,7.88
2023-03-14T02:08:20.823Z,6.90
2023-03-14T02:10:51.036Z,7.00
2023-03-14T02:13:23.025Z,8.25
2023-03-14T02:16:00.697Z,9.90
2023-03-14T02:19:06.458Z,6.75
2023-03-14T02:23:59.384Z,6.43
2023-03-14T02:26:46.431Z,8.48
2023-03-14T02:29:13.010Z,5.07
2023-03-14T02:31:39.975Z,18.38
2023-03-14T02:34:06.981Z,7.20
2023-03-14T02:36:33.495Z,6.50
2023-03-14T02:39:12.898Z,4.55
2023-03-14T02:41:43.448Z,9.13
2023-03-14T02:46:36.290Z,5.10
2023-03-14T02:49:04.064Z,4.35
2023-03-14T02:51:33.076Z,2.83
2023-03-14T02:53:59.496Z,4.47
2023-03-14T02:56:26.041Z,4.72
2023-03-14T02:58:52.532Z,6.03
2023-03-14T03:01:48.485Z,4.43
2023-03-14T03:04:14.951Z,4.53
2023-03-14T03:06:41.419Z,6.80
2023-03-14T03:09:08.024Z,5.78
2023-03-14T03:14:02.053Z,5.55
2023-03-14T03:16:29.258Z,6.18
2023-03-14T03:18:55.704Z,5.60
2023-03-14T03:21:24.330Z,6.45
2023-03-14T03:23:51.353Z,5.43
2023-03-14T03:26:17.739Z,6.63
2023-03-14T03:28:44.214Z,5.10
2023-03-14T03:31:13.061Z,6.13
2023-03-14T03:33:39.791Z,5.47
2023-03-14T03:36:06.767Z,5.38
2023-03-14T03:38:36.447Z,7.07
2023-03-14T03:41:06.079Z,5.25
2023-03-14T03:43:32.782Z,3.88
2023-03-14T03:46:03.794Z,9.70
2023-03-14T03:48:30.288Z,7.22
2023-03-14T03:50:56.893Z,7.38
2023-03-14T03:53:32.685Z,4.38
2023-03-14T03:56:02.555Z,6.60
2023-03-14T04:00:56.478Z,4.93
2023-03-14T04:03:23.046Z,5.93
2023-03-14T04:06:00.224Z,5.55
2023-03-14T04:08:26.850Z,5.57
2023-03-14T04:10:57.121Z,6.82
2023-03-14T04:13:35.912Z,5.78
2023-03-14T04:18:31.272Z,5.50
2023-03-14T04:20:58.452Z,4.68
2023-03-14T04:23:32.380Z,7.97
2023-03-14T04:25:58.808Z,7.90
2023-03-14T04:28:25.398Z,5.40
2023-03-14T04:30:52.170Z,5.22
2023-03-14T04:33:22.261Z,5.05
2023-03-14T04:35:56.700Z,7.10
2023-03-14T04:38:23.214Z,4.22
2023-03-14T04:40:50.773Z,7.78
2023-03-14T04:43:19.964Z,7.88
2023-03-14T04:45:50.832Z,6.47
2023-03-14T04:48:18.193Z,7.10
2023-03-14T04:50:44.615Z,6.63
2023-03-14T04:53:11.158Z,5.93
2023-03-14T04:55:39.158Z,8.10
2023-03-14T04:58:05.596Z,6.72
2023-03-14T05:00:32.238Z,6.78
2023-03-14T05:03:34.207Z,6.28
2023-03-14T05:06:36.076Z,7.82
2023-03-14T05:09:24.576Z,7.13
2023-03-14T05:12:16.960Z,10.40
2023-03-14T05:15:07.104Z,6.43
2023-03-14T05:17:57.352Z,5.95
2023-03-14T05:20:51.375Z,4.32
2023-03-14T05:23:50.028Z,5.93
2023-03-14T05:26:35.226Z,6.57
2023-03-14T05:29:20.165Z,4.57
2023-03-14T05:32:06.890Z,8.13
2023-03-14T05:34:46.498Z,6.70
2023-03-14T05:37:51.364Z,5.95
2023-03-14T05:40:17.783Z,5.63
2023-03-14T05:43:10.669Z,4.88
2023-03-14T05:45:51.195Z,5.90
2023-03-14T05:48:40.546Z,6.22
2023-03-14T05:51:36.013Z,4.68
2023-03-14T05:54:23.895Z,4.60
2023-03-14T05:57:02.535Z,5.70
2023-03-14T05:59:38.927Z,4.35
2023-03-14T06:02:34.167Z,8.27
2023-03-14T06:05:08.811Z,4.50
2023-03-14T06:07:35.882Z,4.47
2023-03-14T06:10:04.634Z,6.18
2023-03-14T06:12:31.177Z,4.68
2023-03-14T06:14:57.753Z,5.05
2023-03-14T06:17:24.525Z,4.00
2023-03-14T06:19:59.791Z,7.70
2023-03-14T06:22:26.787Z,4.60
2023-03-14T06:24:53.884Z,6.03
2023-03-14T06:27:21.608Z,5.32
2023-03-14T06:29:51.562Z,5.15
2023-03-14T06:32:19.119Z,4.55
2023-03-14T06:34:46.419Z,5.90
2023-03-14T06:37:12.933Z,5.25
2023-03-14T06:39:39.916Z,5.00
2023-03-14T06:42:13.873Z,6.75
2023-03-14T06:44:42.017Z,4.72
2023-03-14T06:47:08.417Z,5.55
2023-03-14T06:49:36.538Z,4.97
2023-03-14T06:52:03.470Z,6.50
2023-03-14T06:54:30.589Z,5.65
2023-03-14T06:56:57.081Z,4.70
2023-03-14T06:59:23.587Z,3.42
2023-03-14T07:01:51.650Z,4.93
2023-03-14T07:04:18.691Z,2.55
2023-03-14T07:06:48.578Z,3.72
2023-03-14T07:09:15.329Z,3.55
2023-03-14T07:11:48.359Z,3.78
2023-03-14T07:14:16.520Z,2.80
2023-03-14T07:16:43.109Z,3.03
2023-03-14T07:19:09.585Z,1.92
2023-03-14T07:21:36.656Z,2.25
2023-03-14T07:24:07.638Z,3.30
2023-03-14T07:26:34.127Z,2.53
2023-03-14T07:29:00.658Z,4.10
2023-03-14T07:31:27.121Z,2.17
2023-03-14T07:33:53.978Z,2.72
2023-03-14T07:36:22.383Z,1.65
2023-03-14T07:38:48.885Z,4.00
2023-03-14T07:41:41.609Z,3.78
2023-03-14T07:44:25.950Z,3.28
2023-03-14T07:49:20.019Z,3.60
2023-03-14T07:51:48.622Z,3.70
2023-03-14T07:54:15.038Z,2.92
2023-03-14T07:56:41.461Z,2.92
2023-03-14T07:59:08.282Z,5.00
2023-03-14T08:01:34.860Z,2.00
2023-03-14T08:04:01.264Z,3.22
2023-03-14T08:06:27.692Z,1.98
2023-03-14T08:08:54.094Z,7.13
2023-03-14T08:11:20.491Z,2.75
2023-03-14T08:13:50.724Z,9.93
2023-03-14T08:16:18.345Z,3.15
2023-03-14T08:18:45.084Z,4.18
2023-03-14T08:21:11.603Z,7.20
2023-03-14T08:23:38.015Z,10.98
2023-03-14T08:26:04.893Z,4.95
2023-03-14T08:28:33.515Z,2.33
2023-03-14T08:31:00.888Z,4.35
2023-03-14T08:33:28.355Z,4.22
2023-03-14T08:35:58.832Z,4.25
2023-03-14T08:38:25.333Z,2.60
2023-03-14T08:41:01.291Z,1.90
2023-03-14T08:43:28.402Z,2.22
2023-03-14T08:45:57.914Z,3.97
2023-03-14T08:48:24.356Z,2.28
2023-03-14T08:50:50.732Z,2.20
2023-03-14T08:53:17.168Z,3.33
2023-03-14T08:55:43.642Z,2.08
2023-03-14T08:58:10.070Z,2.38
2023-03-14T09:00:36.613Z,2.58
2023-03-14T09:03:03.082Z,2.35
2023-03-14T09:05:29.480Z,2.35
2023-03-14T09:07:55.875Z,2.00
2023-03-14T09:10:22.290Z,3.03
2023-03-14T09:12:48.815Z,1.75
2023-03-14T09:15:15.233Z,2.15
2023-03-14T09:17:43.205Z,2.83
2023-03-14T09:20:10.053Z,2.40
2023-03-14T09:22:36.679Z,2.35
2023-03-14T09:25:04.161Z,2.42
2023-03-14T09:27:31.006Z,3.00
2023-03-14T09:29:57.369Z,1.98
2023-03-14T09:32:23.767Z,2.08
2023-03-14T09:34:50.362Z,2.25
2023-03-14T09:37:17.273Z,2.65
2023-03-14T09:39:43.796Z,2.58
2023-03-14T09:42:14.064Z,2.45
2023-03-14T09:44:53.585Z,1.20
2023-03-14T09:47:20.887Z,2.10
2023-03-14T09:49:47.304Z,2.10
2023-03-14T09:52:18.818Z,3.13
2023-03-14T09:54:48.099Z,2.30
2023-03-14T09:57:16.630Z,4.57
2023-03-14T09:59:44.733Z,3.05
2023-03-14T10:02:16.409Z,2.15
2023-03-14T10:04:45.387Z,2.35
2023-03-14T10:07:20.440Z,2.20
2023-03-14T10:09:49.072Z,3.15
2023-03-14T10:12:15.531Z,3.50
2023-03-14T10:14:52.396Z,3.17
2023-03-14T10:17:19.980Z,3.67
2023-03-14T10:20:00.867Z,3.00
2023-03-14T10:22:31.039Z,3.75
2023-03-14T10:25:00.235Z,3.75
2023-03-14T10:27:34.110Z,3.22
2023-03-14T10:30:04.069Z,4.97
2023-03-14T10:32:38.599Z,2.45
2023-03-14T10:35:12.600Z,4.07
2023-03-14T10:37:49.250Z,4.03
2023-03-14T10:40:15.694Z,4.45
2023-03-14T10:42:45.410Z,3.88
2023-03-14T10:45:26.871Z,2.88
2023-03-14T10:47:53.414Z,2.40
2023-03-14T10:50:29.931Z,5.20
2023-03-14T10:53:02.371Z,5.80
2023-03-14T10:55:29.142Z,5.40
2023-03-14T10:57:55.748Z,4.40
2023-03-14T11:00:23.675Z,4.93
2023-03-14T11:02:55.881Z,5.72
2023-03-14T11:05:41.228Z,4.70
2023-03-14T11:08:14.008Z,6.00
2023-03-14T11:10:44.617Z,6.10
2023-03-14T11:13:13.938Z,5.18
2023-03-14T11:15:41.120Z,6.35
2023-03-14T11:18:16.720Z,6.68
2023-03-14T11:20:47.685Z,5.32
2023-03-14T11:23:24.942Z,4.32
2023-03-14T11:26:01.443Z,5.45
2023-03-14T11:28:37.879Z,5.63
2023-03-14T11:31:10.624Z,4.90
2023-03-14T11:33:44.772Z,5.07
2023-03-14T11:36:12.809Z,4.82
2023-03-14T11:38:44.380Z,5.88
2023-03-14T11:41:13.038Z,7.68
2023-03-14T11:43:44.017Z,4.28
2023-03-14T11:46:15.551Z,6.45
2023-03-14T11:48:45.518Z,5.22
2023-03-14T11:51:23.105Z,3.67
2023-03-14T11:53:59.618Z,5.00
2023-03-14T11:56:32.335Z,5.30
2023-03-14T11:59:01.069Z,4.78
2023-03-14T12:01:37.360Z,5.10
2023-03-14T12:04:10.929Z,5.22
2023-03-14T12:06:46.777Z,5.10
2023-03-14T12:09:13.508Z,5.82
2023-03-14T12:11:43.419Z,4.93
2023-03-14T12:14:20.905Z,5.07
2023-03-14T12:16:49.531Z,5.15
2023-03-14T12:19:25.620Z,5.82
2023-03-14T12:21:53.943Z,5.15
2023-03-14T12:24:23.550Z,4.13
2023-03-14T12:26:53.345Z,4.90
2023-03-14T12:29:19.779Z,4.35
2023-03-14T12:31:50.541Z,5.03
2023-03-14T12:34:17.529Z,5.25
2023-03-14T12:36:49.845Z,4.60
2023-03-14T12:39:35.224Z,4.97
2023-03-14T12:42:03.744Z,4.43
2023-03-14T12:44:30.320Z,4.30
2023-03-14T12:47:19.922Z,3.78
2023-03-14T12:49:47.782Z,4.05
2023-03-14T12:52:15.572Z,4.47
2023-03-14T12:54:45.405Z,4.88
2023-03-14T12:57:36.812Z,4.65
2023-03-14T13:02:44.278Z,3.83
2023-03-14T13:05:26.241Z,11.40
2023-03-14T13:07:55.910Z,6.78
2023-03-14T13:10:29.085Z,5.63
2023-03-14T13:12:55.495Z,6.95
2023-03-14T13:15:30.074Z,8.02
2023-03-14T13:18:00.660Z,6.32
2023-03-14T13:20:32.398Z,5.00
2023-03-14T13:22:58.918Z,7.00
2023-03-14T13:25:30.135Z,6.07
2023-03-14T13:27:57.113Z,4.63
2023-03-14T13:30:36.800Z,7.32
2023-03-14T13:33:05.031Z,4.95
2023-03-14T13:35:39.177Z,5.25
2023-03-14T13:38:11.908Z,3.40
2023-03-14T13:40:39.221Z,6.45
2023-03-14T13:43:19.877Z,6.70
2023-03-14T13:45:50.674Z,3.92
2023-03-14T13:48:17.879Z,4.05
2023-03-14T13:53:12.490Z,3.92
2023-03-14T13:55:39.270Z,2.42
2023-03-14T13:58:05.911Z,3.28
2023-03-14T14:00:32.260Z,3.45
2023-03-14T14:02:59.604Z,6.68
2023-03-14T14:05:30.546Z,5.43
2023-03-14T14:07:57.201Z,4.72
2023-03-14T14:10:24.101Z,4.38
2023-03-14T14:12:53.815Z,2.58
2023-03-14T14:15:22.517Z,3.67
2023-03-14T14:17:53.374Z,6.53
2023-03-14T14:20:26.683Z,5.03
2023-03-14T14:22:53.401Z,3.95
2023-03-14T14:25:19.973Z,3.58
2023-03-14T14:27:51.075Z,4.15
2023-03-14T14:30:20.533Z,4.38
2023-03-14T14:32:51.342Z,5.43
2023-03-14T14:35:31.456Z,5.32
2023-03-14T14:37:58.072Z,3.83
2023-03-14T14:40:25.525Z,4.32
2023-03-14T14:42:52.506Z,2.22
2023-03-14T14:45:20.523Z,3.58
2023-03-14T14:47:51.325Z,4.25
2023-03-14T14:50:22.421Z,3.38
2023-03-14T14:52:50.131Z,4.72
2023-03-14T14:55:20.806Z,4.13
2023-03-14T14:57:55.206Z,3.08
2023-03-14T15:00:23.497Z,4.32
2023-03-14T15:02:55.297Z,3.88
2023-03-14T15:05:23.376Z,4.53
2023-03-14T15:07:49.745Z,3.83
2023-03-14T15:10:18.448Z,3.17
2023-03-14T15:12:45.228Z,4.05
2023-03-14T15:15:12.398Z,3.25
2023-03-14T15:17:39.222Z,2.92
2023-03-14T15:20:06.968Z,1.63
2023-03-14T15:22:33.396Z,3.55
2023-03-14T15:24:59.873Z,4.32
2023-03-14T15:27:26.574Z,2.42
2023-03-14T15:29:53.002Z,3.45
2023-03-14T15:32:19.762Z,3.53
2023-03-14T15:34:46.420Z,2.45
2023-03-14T15:37:13.823Z,3.25
2023-03-14T15:39:40.700Z,3.42
2023-03-14T15:42:07.239Z,2.67
2023-03-14T15:44:34.143Z,3.28
2023-03-14T15:47:00.628Z,3.08
2023-03-14T15:49:27.010Z,3.60
2023-03-14T15:51:53.417Z,4.75
2023-03-14T15:54:19.964Z,3.25
2023-03-14T15:56:46.605Z,4.00
2023-03-14T15:59:13.253Z,4.20
2023-03-14T16:01:39.814Z,2.90
2023-03-14T16:04:06.365Z,2.45
2023-03-14T16:06:32.836Z,3.22
2023-03-14T16:09:00.527Z,3.85
2023-03-14T16:11:26.934Z,2.80
2023-03-14T16:13:53.346Z,4.22
2023-03-14T16:16:19.832Z,3.60
2023-03-14T16:18:46.383Z,4.43
2023-03-14T16:21:14.006Z,2.47
2023-03-14T16:23:40.500Z,4.97
2023-03-14T16:26:08.349Z,3.92
2023-03-14T16:28:35.039Z,3.47
2023-03-14T16:31:02.373Z,3.20
2023-03-14T16:35:56.414Z,3.50
2023-03-14T16:38:23.805Z,1.58
2023-03-14T16:43:16.804Z,3.92
2023-03-14T16:45:43.322Z,2.53
2023-03-14T16:48:09.833Z,3.33
2023-03-14T16:50:36.732Z,2.60
2023-03-14T16:53:03.184Z,3.55
2023-03-14T16:55:29.638Z,3.80
2023-03-14T16:57:56.067Z,3.10
2023-03-14T17:00:22.676Z,2.15
2023-03-14T17:02:49.021Z,3.00
2023-03-14T17:05:15.414Z,2.53
2023-03-14T17:07:41.806Z,3.25
2023-03-14T17:10:08.653Z,3.10
2023-03-14T17:12:35.027Z,3.28
2023-03-14T17:15:01.498Z,2.78
2023-03-14T17:17:27.910Z,3.53
2023-03-14T17:19:54.363Z,3.90
2023-03-14T17:22:24.537Z,4.82
2023-03-14T17:24:52.501Z,3.53
2023-03-14T17:27:20.572Z,4.88
2023-03-14T17:29:47.468Z,4.57
2023-03-14T17:32:14.883Z,3.00
2023-03-14T17:34:41.376Z,2.63
2023-03-14T17:37:07.728Z,2.47
2023-03-14T17:39:34.237Z,4.28
2023-03-14T17:42:00.645Z,3.38
2023-03-14T17:44:27.114Z,3.80
2023-03-14T17:46:53.782Z,4.90
2023-03-14T17:49:20.425Z,2.92
2023-03-14T17:51:46.860Z,3.22
2023-03-14T17:54:13.308Z,3.58
2023-03-14T17:56:39.889Z,3.78
2023-03-14T17:59:06.404Z,3.92
2023-03-14T18:01:33.009Z,3.10
2023-03-14T18:03:59.562Z,2.42
2023-03-14T18:06:30.114Z,5.15
2023-03-14T18:08:56.821Z,3.53
2023-03-14T18:11:23.829Z,2.80
2023-03-14T18:13:50.512Z,2.42
2023-03-14T18:16:17.210Z,2.67
2023-03-14T18:18:47.091Z,3.20
2023-03-14T18:21:15.397Z,3.30
2023-03-14T18:23:41.789Z,4.05
2023-03-14T18:26:08.178Z,3.88
2023-03-14T18:28:34.565Z,4.07
2023-03-14T18:31:07.305Z,3.72
2023-03-14T18:33:38.186Z,3.05
2023-03-14T18:36:05.622Z,1.50
2023-03-14T18:38:32.186Z,4.63
2023-03-14T18:41:05.549Z,5.05
2023-03-14T18:46:00.587Z,3.15
2023-03-14T18:48:27.277Z,3.53
2023-03-14T18:50:53.652Z,5.63
2023-03-14T18:53:20.135Z,2.50
2023-03-14T18:55:46.638Z,3.70
2023-03-14T18:58:13.809Z,4.18
2023-03-14T19:00:41.276Z,4.40
2023-03-14T19:03:07.804Z,2.88
2023-03-14T19:05:34.353Z,4.35
2023-03-14T19:08:02.757Z,3.38
2023-03-14T19:10:29.214Z,4.50
2023-03-14T19:12:55.600Z,4.03
2023-03-14T19:15:21.946Z,4.65
2023-03-14T19:17:48.444Z,3.67
2023-03-14T19:20:14.995Z,6.00
2023-03-14T19:22:42.517Z,4.70
2023-03-14T19:25:09.963Z,6.35
2023-03-14T19:27:37.894Z,5.53
2023-03-14T19:30:04.562Z,6.13
2023-03-14T19:32:31.137Z,5.05
2023-03-14T19:34:57.578Z,4.40
2023-03-14T19:37:25.976Z,5.20
2023-03-14T19:39:52.364Z,4.00
2023-03-14T19:42:18.749Z,5.70
2023-03-14T19:44:45.241Z,5.50
2023-03-14T19:47:11.639Z,5.60
2023-03-14T19:49:38.029Z,7.68
2023-03-14T19:52:04.531Z,5.30
2023-03-14T19:54:31.622Z,5.95
2023-03-14T19:56:58.081Z,4.05
2023-03-14T19:59:24.586Z,5.18
2023-03-14T20:01:52.511Z,5.18
2023-03-14T20:04:18.874Z,6.72
2023-03-14T20:06:45.957Z,5.40
2023-03-14T20:09:12.340Z,4.10
2023-03-14T20:11:40.822Z,5.22
2023-03-14T20:14:08.426Z,6.88
2023-03-14T20:16:37.304Z,5.97
2023-03-14T20:19:04.682Z,5.65
2023-03-14T20:21:31.841Z,6.03
2023-03-14T20:23:58.252Z,6.10
2023-03-14T20:26:24.879Z,8.55
2023-03-14T20:28:51.270Z,5.43
2023-03-14T20:31:17.838Z,6.22
2023-03-14T20:33:44.303Z,7.50
2023-03-14T20:36:10.936Z,5.90
2023-03-14T20:38:37.664Z,4.85
2023-03-14T20:41:04.666Z,5.40
2023-03-14T20:43:31.960Z,5.50
2023-03-14T20:45:59.221Z,5.80
2023-03-14T20:50:52.606Z,8.02
2023-03-14T20:53:19.319Z,6.53
2023-03-14T20:55:45.964Z,5.68
2023-03-14T20:58:15.764Z,5.38
2023-03-14T21:00:46.251Z,6.10
2023-03-14T21:03:14.243Z,4.60
2023-03-14T21:05:44.378Z,6.32
2023-03-14T21:08:11.944Z,4.70
2023-03-14T21:10:39.287Z,5.82
2023-03-14T21:15:32.578Z,4.85
2023-03-14T21:18:05.121Z,5.60
2023-03-14T21:20:32.299Z,6.55
2023-03-14T21:22:59.184Z,5.55
2023-03-14T21:25:26.257Z,13.10
2023-03-14T21:27:52.604Z,12.88
2023-03-14T21:30:19.286Z,12.23
2023-03-14T21:32:45.669Z,10.35
2023-03-14T21:35:12.169Z,6.68
2023-03-14T21:37:38.592Z,6.65
2023-03-14T21:40:08.242Z,9.35
2023-03-14T21:42:34.976Z,5.85
2023-03-14T21:45:01.449Z,4.65
2023-03-14T21:47:27.983Z,5.35
2023-03-14T21:49:54.406Z,5.43
2023-03-14T21:52:23.474Z,5.43
2023-03-14T21:54:49.899Z,6.10
2023-03-14T21:57:16.650Z,4.35
2023-03-14T21:59:44.330Z,4.75
2023-03-14T22:02:15.716Z,5.10
2023-03-14T22:04:42.410Z,5.53
2023-03-14T22:07:10.404Z,5.70
2023-03-14T22:09:39.216Z,5.13
2023-03-14T22:12:05.677Z,6.07
2023-03-14T22:14:32.173Z,4.07
2023-03-14T22:17:01.645Z,7.75
2023-03-14T22:19:28.040Z,12.82
2023-03-14T22:21:54.404Z,10.40
2023-03-14T22:24:20.792Z,11.52
2023-03-14T22:26:47.169Z,9.85
2023-03-14T22:29:13.669Z,8.18
2023-03-14T22:31:40.197Z,5.32
2023-03-14T22:34:06.573Z,6.70
2023-03-14T22:36:32.944Z,8.35
2023-03-14T22:38:59.332Z,7.53
2023-03-14T22:41:25.835Z,11.93
2023-03-14T22:43:52.315Z,11.75
2023-03-14T22:46:18.693Z,14.50
2023-03-14T22:48:45.108Z,10.93
2023-03-14T22:51:12.733Z,9.38
2023-03-14T22:53:39.115Z,10.48
2023-03-14T22:56:07.998Z,6.30
2023-03-14T22:58:34.897Z,5.88
2023-03-14T23:01:01.302Z,7.10
2023-03-14T23:03:28.019Z,6.85
2023-03-14T23:05:54.389Z,8.02
2023-03-14T23:08:20.763Z,11.05
2023-03-14T23:10:47.173Z,8.82
2023-03-14T23:13:14.545Z,7.90
2023-03-14T23:15:41.668Z,8.38
2023-03-14T23:18:08.496Z,9.75
2023-03-14T23:20:34.849Z,8.07
2023-03-14T23:23:01.234Z,6.03
2023-03-14T23:25:28.778Z,4.30
2023-03-14T23:27:56.491Z,5.55
2023-03-14T23:30:22.955Z,7.68
2023-03-14T23:32:49.415Z,6.30
2023-03-14T23:35:15.893Z,7.05
2023-03-14T23:37:42.289Z,9.52
2023-03-14T23:40:08.966Z,8.07
2023-03-14T23:42:36.090Z,8.43
2023-03-14T23:45:03.040Z,9.98
2023-03-14T23:47:29.682Z,9.32
2023-03-14T23:49:56.056Z,7.05
2023-03-14T23:52:22.448Z,7.25
2023-03-14T23:54:48.834Z,8.40
2023-03-14T23:57:15.323Z,6.50
2023-03-14T23:59:42.776Z,6.60
